Time;durP1;ratioP1;P1;durP2;ratioP2;P2;SDS_P1;SDS_P2;PMS_P1;PMS_P2;Temp;Humidity;BMP_temperature;BMP_pressure;BME280_temperature;BME280_humidity;BME280_pressure;Samples;Min_cycle;Max_cycle;Signal;HPM_P1;HPM_P2
2022/02/28 00:02:06;;;;;;;24.52;12.77;;;5.50;50.90;;;;;;4976211;28;20116;-65
2022/02/28 00:04:32;;;;;;;22.13;12.38;;;5.50;51.20;;;;;;4993913;28;20034;-66
2022/02/28 00:06:58;;;;;;;23.88;12.38;;;5.30;51.40;;;;;;4992392;28;20022;-65
2022/02/28 00:09:24;;;;;;;21.85;12.25;;;5.40;51.30;;;;;;4993201;28;20489;-65
2022/02/28 00:11:50;;;;;;;22.80;12.95;;;5.40;51.50;;;;;;4975257;28;20030;-65
2022/02/28 00:14:15;;;;;;;25.02;13.18;;;5.30;51.90;;;;;;4993459;28;20034;-65
2022/02/28 00:16:41;;;;;;;23.98;12.43;;;5.30;52.00;;;;;;4992790;28;20049;-65
2022/02/28 00:19:07;;;;;;;25.35;13.35;;;5.30;52.10;;;;;;4993281;28;20033;-66
2022/02/28 00:21:33;;;;;;;27.70;12.98;;;5.30;52.20;;;;;;4975574;28;20057;-65
2022/02/28 00:23:59;;;;;;;29.10;13.93;;;5.30;52.30;;;;;;4992206;28;20030;-65
2022/02/28 00:26:25;;;;;;;24.95;13.88;;;5.30;52.60;;;;;;4975689;28;20129;-65
2022/02/28 00:28:51;;;;;;;32.20;14.77;;;5.20;53.10;;;;;;4992573;28;20069;-67
2022/02/28 00:31:18;;;;;;;28.25;14.35;;;5.10;53.30;;;;;;4993077;28;20062;-66
2022/02/28 00:33:44;;;;;;;26.77;15.77;;;5.10;53.60;;;;;;4992183;28;20050;-65
2022/02/28 00:36:10;;;;;;;26.42;14.30;;;5.00;53.80;;;;;;4992672;28;20486;-65
2022/02/28 00:38:36;;;;;;;26.92;14.95;;;5.00;54.00;;;;;;4992517;28;20026;-66
2022/02/28 00:41:02;;;;;;;28.65;15.38;;;4.90;54.40;;;;;;4992248;28;20034;-66
2022/02/28 00:43:28;;;;;;;27.58;14.70;;;5.00;54.40;;;;;;4992881;28;20022;-66
2022/02/28 00:45:53;;;;;;;33.53;15.57;;;5.00;54.50;;;;;;4974991;28;20389;-65
2022/02/28 00:48:19;;;;;;;27.15;14.73;;;4.90;55.00;;;;;;4975426;28;20030;-66
2022/02/28 00:50:45;;;;;;;29.92;14.98;;;4.80;55.00;;;;;;4992042;28;20579;-66
2022/02/28 00:53:11;;;;;;;30.15;15.55;;;4.80;54.80;;;;;;4992778;28;20125;-65
2022/02/28 00:55:37;;;;;;;25.58;14.70;;;4.80;55.10;;;;;;4992373;28;20042;-66
2022/02/28 00:58:04;;;;;;;26.95;13.77;;;4.80;55.00;;;;;;4992283;28;20027;-66
2022/02/28 01:00:30;;;;;;;27.38;14.43;;;4.80;55.50;;;;;;4992701;28;20023;-66
2022/02/28 01:02:56;;;;;;;29.35;14.75;;;4.70;55.90;;;;;;4992343;28;20031;-65
2022/02/28 01:05:23;;;;;;;27.83;14.48;;;4.70;55.50;;;;;;4992559;28;20101;-66
2022/02/28 01:07:49;;;;;;;26.92;14.60;;;4.70;55.70;;;;;;4974701;28;20033;-65
2022/02/28 01:10:17;;;;;;;26.73;14.88;;;4.60;55.90;;;;;;4992097;28;20057;-66
2022/02/28 01:13:04;;;;;;;29.10;15.05;;;4.60;56.10;;;;;;4974567;28;20037;-63
2022/02/28 01:15:30;;;;;;;27.25;14.70;;;4.50;56.10;;;;;;4992721;28;20073;-65
2022/02/28 01:17:56;;;;;;;29.08;15.30;;;4.50;56.20;;;;;;4991792;28;20038;-65
2022/02/28 01:20:21;;;;;;;31.75;14.48;;;4.50;56.40;;;;;;4992592;28;20030;-66
2022/02/28 01:22:47;;;;;;;29.65;14.55;;;4.50;57.00;;;;;;4990916;28;20077;-66
2022/02/28 01:25:13;;;;;;;27.00;14.27;;;4.50;56.80;;;;;;4992111;28;20465;-65
2022/02/28 01:27:58;;;;;;;29.42;15.40;;;4.40;56.90;;;;;;4974876;28;20022;-65
2022/02/28 01:30:24;;;;;;;26.50;14.80;;;4.50;57.00;;;;;;4992805;28;20068;-66
2022/02/28 01:32:49;;;;;;;30.73;15.25;;;4.50;57.20;;;;;;4974143;28;20078;-65
2022/02/28 01:35:16;;;;;;;30.67;15.88;;;4.50;57.00;;;;;;4991732;28;20044;-65
2022/02/28 01:37:42;;;;;;;32.55;16.65;;;4.50;57.10;;;;;;4974642;28;20045;-64
2022/02/28 01:40:12;;;;;;;32.70;15.85;;;4.50;56.90;;;;;;4992109;28;20027;-65
2022/02/28 01:42:38;;;;;;;30.92;15.43;;;4.40;57.30;;;;;;4992016;28;20056;-64
2022/02/28 01:45:10;;;;;;;32.35;15.95;;;4.40;57.50;;;;;;4991458;28;20125;-65
2022/02/28 01:47:36;;;;;;;33.35;17.08;;;4.40;57.70;;;;;;4992087;28;20026;-66
2022/02/28 01:50:02;;;;;;;30.35;16.67;;;4.40;57.50;;;;;;4974314;28;20495;-66
2022/02/28 01:52:28;;;;;;;31.02;17.33;;;4.40;57.70;;;;;;4991962;28;20083;-66
2022/02/28 01:54:54;;;;;;;31.67;17.10;;;4.40;57.80;;;;;;4991383;28;20160;-65
2022/02/28 01:57:19;;;;;;;30.45;16.63;;;4.30;57.80;;;;;;4991953;28;20034;-66
2022/02/28 01:59:46;;;;;;;33.80;17.83;;;4.40;57.80;;;;;;4991455;28;20449;-64
2022/02/28 02:02:11;;;;;;;33.35;17.50;;;4.40;57.80;;;;;;4992142;28;20042;-65
2022/02/28 02:04:37;;;;;;;32.47;17.70;;;4.30;57.90;;;;;;4995665;28;20389;-65
2022/02/28 02:07:04;;;;;;;32.70;18.73;;;4.40;57.80;;;;;;4977610;28;20034;-65
2022/02/28 02:09:33;;;;;;;30.83;17.23;;;4.40;57.80;;;;;;4978238;28;20129;-65
2022/02/28 02:11:59;;;;;;;28.58;16.02;;;4.40;57.40;;;;;;4994815;28;20089;-65
2022/02/28 02:14:25;;;;;;;30.00;16.42;;;4.40;57.30;;;;;;4995616;28;20031;-65
2022/02/28 02:16:50;;;;;;;27.83;15.85;;;4.40;57.20;;;;;;4994572;28;20081;-64
2022/02/28 02:19:16;;;;;;;28.42;15.43;;;4.30;57.20;;;;;;4962158;28;20026;-65
2022/02/28 02:21:42;;;;;;;29.52;16.27;;;4.30;57.10;;;;;;4995290;28;20426;-67
2022/02/28 02:24:08;;;;;;;24.33;14.38;;;4.40;57.00;;;;;;4977190;28;20026;-65
2022/02/28 02:26:33;;;;;;;25.08;14.18;;;4.40;56.70;;;;;;4995612;28;20081;-66
2022/02/28 02:28:59;;;;;;;25.70;14.43;;;4.40;56.50;;;;;;4994685;28;20471;-65
2022/02/28 02:31:25;;;;;;;22.83;13.52;;;4.50;56.40;;;;;;4977725;28;20395;-66
2022/02/28 02:33:50;;;;;;;24.77;14.10;;;4.50;56.20;;;;;;4994770;28;20130;-66
2022/02/28 02:36:18;;;;;;;23.35;12.77;;;4.50;56.30;;;;;;4994657;28;20034;-66
2022/02/28 02:38:44;;;;;;;27.80;14.18;;;4.40;56.40;;;;;;4994736;28;20034;-65
2022/02/28 02:41:10;;;;;;;28.10;14.45;;;4.40;56.40;;;;;;4994476;28;20049;-65
2022/02/28 02:43:36;;;;;;;30.00;14.75;;;4.30;56.30;;;;;;4994770;28;20069;-66
2022/02/28 02:46:03;;;;;;;25.58;14.32;;;4.40;56.20;;;;;;4976988;28;20030;-64
2022/02/28 02:48:29;;;;;;;26.25;14.05;;;4.30;56.10;;;;;;4994709;28;20032;-65
2022/02/28 02:50:56;;;;;;;28.90;14.63;;;4.40;56.20;;;;;;4994110;28;20034;-65
2022/02/28 02:53:22;;;;;;;27.40;14.45;;;4.30;56.00;;;;;;4977439;28;20053;-65
2022/02/28 02:55:48;;;;;;;27.55;14.75;;;4.40;56.10;;;;;;4994387;28;20113;-64
2022/02/28 02:58:14;;;;;;;26.27;14.00;;;4.50;56.00;;;;;;4994599;28;20101;-66
2022/02/28 03:00:45;;;;;;;26.77;14.63;;;4.40;56.10;;;;;;4994117;28;20026;-65
2022/02/28 03:03:14;;;;;;;26.75;14.60;;;4.30;56.20;;;;;;4994395;28;20030;-66
2022/02/28 03:05:40;;;;;;;25.98;13.80;;;4.30;56.10;;;;;;4994776;28;20022;-66
2022/02/28 03:08:06;;;;;;;27.65;15.05;;;4.40;56.10;;;;;;4993901;28;20088;-65
2022/02/28 03:10:32;;;;;;;25.92;15.38;;;4.30;56.40;;;;;;4994493;28;20034;-66
2022/02/28 03:12:58;;;;;;;30.50;16.17;;;4.20;56.60;;;;;;4993826;28;20106;-65
2022/02/28 03:15:24;;;;;;;26.45;15.45;;;4.10;57.20;;;;;;4994160;28;20058;-65
2022/02/28 03:17:50;;;;;;;29.40;16.52;;;4.10;57.00;;;;;;4993868;28;20500;-64
2022/02/28 03:20:16;;;;;;;26.48;15.30;;;4.10;56.90;;;;;;4994897;28;20100;-66
2022/02/28 03:22:41;;;;;;;31.23;17.17;;;4.00;57.30;;;;;;4994107;28;20042;-65
2022/02/28 03:25:07;;;;;;;29.92;15.45;;;3.90;57.30;;;;;;4993787;28;20030;-65
2022/02/28 03:27:33;;;;;;;28.80;15.60;;;4.00;57.50;;;;;;4994311;28;20033;-66
2022/02/28 03:29:59;;;;;;;30.60;16.73;;;3.90;57.40;;;;;;4993837;28;20027;-65
2022/02/28 03:32:24;;;;;;;30.65;16.83;;;4.00;57.30;;;;;;4967948;28;20047;-66
2022/02/28 03:34:50;;;;;;;30.58;16.40;;;4.00;57.20;;;;;;4953809;29;20442;-64
2022/02/28 03:37:16;;;;;;;29.80;16.00;;;4.10;57.20;;;;;;4954949;29;20034;-64
2022/02/28 03:39:42;;;;;;;29.95;17.50;;;4.00;57.30;;;;;;4953570;29;20497;-66
2022/02/28 03:42:08;;;;;;;29.65;16.85;;;3.90;57.40;;;;;;4953433;29;20051;-65
2022/02/28 03:44:33;;;;;;;28.20;16.25;;;3.80;57.90;;;;;;4955138;29;20075;-66
2022/02/28 03:46:59;;;;;;;32.40;17.00;;;3.70;57.90;;;;;;4954238;29;20058;-65
2022/02/28 03:49:25;;;;;;;28.35;16.83;;;3.80;57.80;;;;;;4953608;29;20078;-65
2022/02/28 03:51:50;;;;;;;32.20;17.60;;;3.90;57.70;;;;;;4953562;29;20078;-65
2022/02/28 03:54:16;;;;;;;33.35;18.05;;;3.90;57.50;;;;;;4953213;29;20178;-65
2022/02/28 03:56:44;;;;;;;31.25;16.90;;;3.90;58.20;;;;;;4954896;29;20034;-65
2022/02/28 03:59:11;;;;;;;32.15;17.48;;;3.90;57.50;;;;;;4954423;29;20035;-66
2022/02/28 04:01:37;;;;;;;29.05;16.70;;;3.80;57.80;;;;;;4954659;29;20034;-65
2022/02/28 04:04:03;;;;;;;34.17;16.48;;;3.70;57.90;;;;;;4954193;29;20035;-65
2022/02/28 04:06:31;;;;;;;29.50;16.52;;;3.70;58.10;;;;;;4954965;28;20031;-65
2022/02/28 04:08:58;;;;;;;33.80;17.15;;;3.80;57.90;;;;;;4953930;29;20023;-64
2022/02/28 04:11:24;;;;;;;32.30;16.85;;;3.80;57.40;;;;;;4953168;29;20035;-65
2022/02/28 04:13:50;;;;;;;27.95;16.75;;;3.90;57.00;;;;;;4954396;29;20435;-65
2022/02/28 04:16:15;;;;;;;30.45;16.10;;;4.00;56.50;;;;;;4954016;29;20066;-65
2022/02/28 04:18:41;;;;;;;27.10;15.13;;;4.00;56.40;;;;;;4954593;29;20035;-65
2022/02/28 04:21:07;;;;;;;30.50;15.70;;;4.10;56.20;;;;;;4954085;29;20037;-64
2022/02/28 04:23:32;;;;;;;31.35;16.20;;;4.10;55.80;;;;;;4953249;28;20035;-65
2022/02/28 04:26:02;;;;;;;26.30;15.80;;;4.20;55.50;;;;;;4953921;28;20426;-65
2022/02/28 04:28:28;;;;;;;27.88;16.05;;;4.20;55.40;;;;;;4954652;29;20048;-66
2022/02/28 04:30:54;;;;;;;28.98;15.50;;;4.20;55.30;;;;;;4954762;29;20331;-65
2022/02/28 04:33:20;;;;;;;24.23;14.32;;;4.30;55.30;;;;;;4978479;28;20069;-64
2022/02/28 04:35:45;;;;;;;28.15;14.95;;;4.30;55.10;;;;;;4992728;28;20030;-65
2022/02/28 04:38:11;;;;;;;29.17;15.88;;;4.30;54.70;;;;;;4992443;28;20430;-66
2022/02/28 04:40:55;;;;;;;27.63;14.73;;;4.30;54.70;;;;;;4975415;28;20026;-65
2022/02/28 04:43:21;;;;;;;24.90;14.02;;;4.30;54.50;;;;;;4975245;28;20030;-64
2022/02/28 04:45:47;;;;;;;27.05;14.52;;;4.30;54.60;;;;;;4975019;28;20029;-66
2022/02/28 04:48:12;;;;;;;24.77;14.38;;;4.30;54.40;;;;;;4974814;28;20401;-66
2022/02/28 04:50:38;;;;;;;26.90;14.25;;;4.30;54.20;;;;;;4992454;28;20411;-65
2022/02/28 04:53:04;;;;;;;25.13;14.52;;;4.30;54.30;;;;;;4992279;28;20026;-65
2022/02/28 04:55:30;;;;;;;27.85;15.65;;;4.30;54.10;;;;;;4992391;28;20106;-66
2022/02/28 04:57:56;;;;;;;25.02;14.00;;;4.30;53.50;;;;;;4992649;28;20033;-65
2022/02/28 05:00:22;;;;;;;26.05;14.60;;;4.30;54.40;;;;;;4990883;28;20470;-66
2022/02/28 05:02:47;;;;;;;28.23;14.35;;;4.20;53.60;;;;;;4992552;28;20041;-66
2022/02/28 05:05:13;;;;;;;22.45;12.77;;;4.10;53.90;;;;;;4991752;28;20216;-66
2022/02/28 05:07:39;;;;;;;28.23;13.65;;;4.10;53.90;;;;;;4974981;28;20030;-66
2022/02/28 05:10:06;;;;;;;22.63;13.20;;;4.00;53.80;;;;;;4992223;28;20030;-65
2022/02/28 05:12:31;;;;;;;25.55;13.18;;;3.90;53.90;;;;;;4992154;28;20038;-64
2022/02/28 05:14:58;;;;;;;22.08;12.88;;;3.80;54.10;;;;;;4974836;28;20033;-65
2022/02/28 05:17:23;;;;;;;24.45;12.98;;;3.80;53.90;;;;;;4992352;28;20062;-65
2022/02/28 05:19:49;;;;;;;23.55;13.65;;;3.80;54.00;;;;;;4992173;28;20054;-65
2022/02/28 05:22:15;;;;;;;23.48;13.63;;;3.80;54.00;;;;;;4992053;28;20041;-64
2022/02/28 05:24:40;;;;;;;27.80;13.98;;;3.80;54.10;;;;;;4992398;28;20023;-65
2022/02/28 05:27:09;;;;;;;23.42;13.52;;;3.80;54.00;;;;;;4974483;28;20027;-65
2022/02/28 05:29:37;;;;;;;28.42;13.98;;;3.80;54.10;;;;;;4974914;28;20034;-66
2022/02/28 05:32:04;;;;;;;22.35;12.90;;;3.70;54.10;;;;;;4990244;28;20085;-64
2022/02/28 05:34:30;;;;;;;41.22;13.55;;;3.70;54.20;;;;;;4991801;28;20022;-65
2022/02/28 05:36:55;;;;;;;24.60;12.85;;;3.70;54.30;;;;;;4974812;28;20442;-65
2022/02/28 05:39:21;;;;;;;25.52;13.27;;;3.70;54.30;;;;;;4977247;28;20416;-65
2022/02/28 05:41:47;;;;;;;35.40;13.98;;;3.60;54.50;;;;;;4995959;28;20027;-65
2022/02/28 05:44:12;;;;;;;23.65;13.15;;;3.60;54.50;;;;;;4978009;28;20022;-65
2022/02/28 05:46:38;;;;;;;23.00;12.25;;;3.60;54.30;;;;;;4996148;28;20381;-64
2022/02/28 05:49:04;;;;;;;29.38;13.90;;;3.70;54.10;;;;;;4995485;28;20042;-64
2022/02/28 05:51:31;;;;;;;19.92;11.30;;;3.70;53.90;;;;;;4978571;28;20037;-67
2022/02/28 05:53:57;;;;;;;30.10;13.20;;;3.60;53.80;;;;;;4995081;28;20496;-66
2022/02/28 05:56:24;;;;;;;21.25;12.77;;;3.70;53.90;;;;;;4996293;28;20113;-63
2022/02/28 05:58:49;;;;;;;24.80;12.63;;;3.80;53.90;;;;;;4996072;28;20015;-65
2022/02/28 06:01:15;;;;;;;23.10;11.88;;;3.80;53.50;;;;;;4995107;28;20045;-62
2022/02/28 06:03:41;;;;;;;24.58;12.95;;;3.90;53.50;;;;;;4995358;28;20030;-64
2022/02/28 06:06:06;;;;;;;25.23;12.63;;;3.90;53.20;;;;;;4995598;28;20369;-65
2022/02/28 06:08:32;;;;;;;26.02;11.63;;;3.80;53.30;;;;;;4995741;28;20030;-63
2022/02/28 06:10:58;;;;;;;21.63;11.23;;;3.90;53.30;;;;;;4978063;28;20026;-65
2022/02/28 06:13:24;;;;;;;19.25;11.48;;;3.90;53.00;;;;;;4995184;28;20027;-62
2022/02/28 06:15:49;;;;;;;21.48;11.95;;;3.90;52.90;;;;;;4995252;28;20026;-65
2022/02/28 06:18:15;;;;;;;21.23;11.40;;;3.90;52.70;;;;;;4994267;28;20525;-63
2022/02/28 06:20:41;;;;;;;24.65;11.90;;;4.00;52.70;;;;;;4995327;28;20370;-64
2022/02/28 06:23:09;;;;;;;27.98;11.98;;;4.00;52.70;;;;;;4976799;28;20030;-63
2022/02/28 06:25:35;;;;;;;22.95;11.27;;;4.00;52.70;;;;;;4995429;28;20401;-64
2022/02/28 06:28:01;;;;;;;32.63;12.52;;;4.10;52.70;;;;;;4995292;28;20042;-63
2022/02/28 06:30:27;;;;;;;38.22;13.55;;;4.10;52.50;;;;;;4994476;28;20489;-63
2022/02/28 06:32:52;;;;;;;22.95;12.07;;;4.10;52.20;;;;;;4994555;28;20065;-65
2022/02/28 06:35:18;;;;;;;26.42;12.02;;;4.10;52.10;;;;;;4993995;28;20030;-66
2022/02/28 06:37:44;;;;;;;25.00;12.02;;;4.10;52.10;;;;;;4994327;28;20194;-66
2022/02/28 06:40:10;;;;;;;24.77;11.73;;;4.10;52.20;;;;;;4994203;28;20184;-67
2022/02/28 06:42:35;;;;;;;20.48;10.93;;;4.10;51.90;;;;;;4994935;28;20045;-66
2022/02/28 06:45:03;;;;;;;47.55;12.10;;;4.20;52.00;;;;;;4977233;28;20481;-67
2022/02/28 06:47:28;;;;;;;22.27;11.43;;;4.20;51.70;;;;;;4994209;28;20085;-67
2022/02/28 06:49:54;;;;;;;19.50;10.90;;;4.20;51.60;;;;;;4993796;28;20026;-66
2022/02/28 06:52:20;;;;;;;24.85;10.90;;;4.20;51.60;;;;;;4993880;28;20027;-66
2022/02/28 06:54:46;;;;;;;32.47;12.32;;;4.30;51.10;;;;;;4994325;28;20062;-67
2022/02/28 06:57:12;;;;;;;26.42;11.32;;;4.40;51.20;;;;;;4994021;28;20118;-66
2022/02/28 06:59:37;;;;;;;30.65;11.32;;;4.40;50.60;;;;;;4994331;28;20026;-67
2022/02/28 07:02:03;;;;;;;19.98;10.60;;;4.50;50.80;;;;;;4994454;28;20092;-67
2022/02/28 07:04:29;;;;;;;24.02;10.98;;;4.40;50.10;;;;;;4976688;28;20029;-67
2022/02/28 07:06:55;;;;;;;25.67;10.43;;;4.50;50.20;;;;;;4994347;28;20030;-67
2022/02/28 07:09:21;;;;;;;22.05;10.38;;;4.50;49.70;;;;;;4993205;28;20023;-67
2022/02/28 07:11:46;;;;;;;20.90;10.23;;;4.50;49.70;;;;;;4975858;28;20030;-69
2022/02/28 07:14:12;;;;;;;19.02;10.52;;;4.70;49.00;;;;;;4993265;28;20078;-69
2022/02/28 07:16:38;;;;;;;41.28;12.02;;;5.00;48.80;;;;;;4993413;28;20121;-68
2022/02/28 07:19:04;;;;;;;30.52;11.70;;;5.10;48.30;;;;;;4975861;28;20033;-70
2022/02/28 07:21:49;;;;;;;20.92;10.18;;;5.10;48.30;;;;;;4993824;28;20035;-68
2022/02/28 07:24:14;;;;;;;25.63;11.02;;;5.20;48.80;;;;;;4993390;28;20053;-69
2022/02/28 07:26:40;;;;;;;19.52;11.50;;;5.30;48.90;;;;;;4993654;28;20061;-69
2022/02/28 07:29:06;;;;;;;27.02;11.45;;;5.40;48.90;;;;;;4993466;28;20034;-69
2022/02/28 07:31:32;;;;;;;34.65;14.63;;;5.60;49.10;;;;;;4975175;28;20030;-68
2022/02/28 07:33:58;;;;;;;25.38;15.55;;;6.10;48.60;;;;;;4975580;28;20058;-69
2022/02/28 07:36:23;;;;;;;27.52;14.57;;;7.70;47.80;;;;;;4975400;28;20022;-68
2022/02/28 07:38:49;;;;;;;30.70;15.07;;;10.40;43.50;;;;;;4993090;28;20455;-69
2022/02/28 07:41:15;;;;;;;23.42;15.80;;;12.80;40.20;;;;;;4992126;28;20038;-69
2022/02/28 07:43:41;;;;;;;33.58;17.13;;;14.60;36.90;;;;;;4992657;28;20387;-69
2022/02/28 07:46:06;;;;;;;25.05;16.05;;;16.80;32.50;;;;;;4992869;28;20022;-69
2022/02/28 07:48:32;;;;;;;24.70;16.35;;;18.40;29.80;;;;;;4974611;28;20037;-70
2022/02/28 07:50:58;;;;;;;28.20;19.05;;;19.70;29.20;;;;;;4974733;28;20031;-71
2022/02/28 07:53:23;;;;;;;23.63;16.20;;;20.80;27.10;;;;;;4974873;28;20026;-68
2022/02/28 07:55:49;;;;;;;22.73;16.35;;;21.60;26.40;;;;;;4992393;28;20034;-70
2022/02/28 07:58:15;;;;;;;17.77;15.45;;;22.10;25.50;;;;;;4974613;28;20224;-70
2022/02/28 08:00:41;;;;;;;25.45;15.45;;;22.20;25.60;;;;;;4992016;28;20022;-69
2022/02/28 08:03:07;;;;;;;31.25;15.75;;;21.90;25.30;;;;;;4992698;28;20034;-68
2022/02/28 08:05:32;;;;;;;21.73;13.95;;;21.60;24.50;;;;;;4958578;28;20037;-69
2022/02/28 08:07:58;;;;;;;22.77;13.98;;;21.80;24.80;;;;;;4975210;28;20077;-69
2022/02/28 08:10:24;;;;;;;43.65;17.13;;;22.20;24.60;;;;;;4992333;28;20037;-70
2022/02/28 08:12:50;;;;;;;26.90;14.52;;;22.70;24.50;;;;;;4992841;28;20030;-67
2022/02/28 08:15:15;;;;;;;20.00;13.80;;;22.90;23.90;;;;;;4974552;28;20453;-70
2022/02/28 08:17:41;;;;;;;19.73;12.63;;;23.10;23.40;;;;;;4975248;28;20037;-68
2022/02/28 08:20:07;;;;;;;31.83;14.25;;;23.10;23.30;;;;;;4992696;28;20027;-67
2022/02/28 08:22:33;;;;;;;18.45;12.82;;;22.50;22.70;;;;;;4992478;28;20030;-68
2022/02/28 08:24:59;;;;;;;25.98;13.20;;;20.10;23.40;;;;;;4992933;28;20030;-67
2022/02/28 08:27:26;;;;;;;21.98;14.57;;;19.70;24.70;;;;;;4992421;28;20039;-69
2022/02/28 08:29:52;;;;;;;22.75;12.18;;;19.10;24.70;;;;;;4992302;28;20058;-68
2022/02/28 08:32:17;;;;;;;20.98;11.20;;;17.10;25.20;;;;;;4991537;28;20077;-70
2022/02/28 08:34:43;;;;;;;23.15;11.80;;;15.20;27.30;;;;;;4992477;28;20034;-74
2022/02/28 08:37:09;;;;;;;20.35;10.02;;;14.00;28.20;;;;;;4992088;28;20489;-72
2022/02/28 08:39:35;;;;;;;21.00;10.35;;;12.80;29.40;;;;;;4974424;28;20034;-69
2022/02/28 08:42:01;;;;;;;18.13;10.43;;;12.00;30.00;;;;;;4991982;28;20036;-66
2022/02/28 08:44:26;;;;;;;21.27;10.48;;;11.30;30.70;;;;;;4991875;28;20486;-65
2022/02/28 08:46:52;;;;;;;23.08;10.75;;;11.00;31.30;;;;;;4992034;28;20026;-65
2022/02/28 08:49:18;;;;;;;18.13;10.15;;;10.40;32.00;;;;;;4991595;28;20382;-66
2022/02/28 08:51:45;;;;;;;36.75;12.02;;;10.00;32.80;;;;;;4992097;28;20030;-68
2022/02/28 08:54:10;;;;;;;25.05;11.10;;;9.40;33.80;;;;;;4992484;28;20031;-68
2022/02/28 08:56:36;;;;;;;17.08;9.52;;;8.90;34.70;;;;;;4991336;28;20053;-69
2022/02/28 08:59:21;;;;;;;21.45;10.85;;;8.90;35.00;;;;;;4991904;28;20026;-68
2022/02/28 09:01:46;;;;;;;22.33;10.93;;;8.70;35.30;;;;;;4974642;28;20026;-68
2022/02/28 09:04:12;;;;;;;21.38;9.57;;;8.50;35.70;;;;;;4991040;28;20030;-68
2022/02/28 09:06:41;;;;;;;22.40;9.98;;;8.10;36.30;;;;;;4971077;28;20056;-68
2022/02/28 09:09:07;;;;;;;21.92;10.50;;;8.10;36.60;;;;;;4988974;28;20084;-69
2022/02/28 09:11:33;;;;;;;20.65;10.63;;;7.90;36.70;;;;;;4989462;28;20318;-68
2022/02/28 09:13:59;;;;;;;20.15;10.98;;;7.90;37.00;;;;;;4972340;28;20254;-68
2022/02/28 09:16:27;;;;;;;21.27;10.63;;;7.90;37.30;;;;;;4971307;28;20142;-69
2022/02/28 09:18:53;;;;;;;22.65;10.85;;;7.70;37.40;;;;;;4970263;28;20030;-68
2022/02/28 09:21:18;;;;;;;22.35;9.80;;;7.80;37.60;;;;;;4971193;28;20381;-71
2022/02/28 09:23:44;;;;;;;23.17;9.38;;;7.80;37.60;;;;;;4991953;28;20030;-70
2022/02/28 09:26:10;;;;;;;23.70;8.82;;;7.70;37.50;;;;;;4974615;28;20036;-66
2022/02/28 09:28:35;;;;;;;19.50;9.10;;;7.60;38.10;;;;;;4974007;28;20030;-64
2022/02/28 09:31:01;;;;;;;18.70;8.20;;;7.40;37.70;;;;;;4990779;28;20477;-64
2022/02/28 09:33:27;;;;;;;24.60;9.60;;;7.30;38.10;;;;;;4989058;28;20046;-67
2022/02/28 09:35:54;;;;;;;22.95;9.70;;;7.50;38.00;;;;;;4988478;28;20410;-68
2022/02/28 09:38:20;;;;;;;23.20;9.07;;;7.40;38.00;;;;;;4971009;28;20586;-65
2022/02/28 09:40:48;;;;;;;25.95;9.18;;;7.60;38.10;;;;;;4980274;28;20033;-66
2022/02/28 09:43:15;;;;;;;29.17;11.27;;;8.00;38.10;;;;;;4986947;28;20037;-66
2022/02/28 09:45:41;;;;;;;29.67;8.95;;;8.20;36.50;;;;;;4971087;28;20025;-65
2022/02/28 09:48:09;;;;;;;24.90;8.25;;;8.10;36.60;;;;;;4973266;28;20436;-65
2022/02/28 09:50:35;;;;;;;31.48;9.18;;;8.00;36.60;;;;;;4990848;28;20069;-66
2022/02/28 09:53:01;;;;;;;33.38;8.75;;;7.70;36.80;;;;;;4972796;28;20466;-65
2022/02/28 09:55:26;;;;;;;29.85;8.75;;;7.70;37.30;;;;;;4972735;28;20062;-66
2022/02/28 09:57:52;;;;;;;23.17;8.20;;;7.80;37.20;;;;;;4973086;28;20034;-64
2022/02/28 10:00:21;;;;;;;25.42;13.15;;;7.90;37.20;;;;;;4990398;28;20476;-62
2022/02/28 10:02:48;;;;;;;24.98;8.65;;;8.10;37.30;;;;;;4990354;28;20045;-64
2022/02/28 10:05:14;;;;;;;25.27;9.38;;;8.30;37.10;;;;;;4991057;28;20034;-65
2022/02/28 10:08:06;;;;;;;20.48;7.38;;;8.30;36.40;;;;;;4990602;28;20106;-67
2022/02/28 10:10:36;;;;;;;20.80;7.93;;;8.20;36.70;;;;;;4971776;28;20077;-64
2022/02/28 10:13:02;;;;;;;18.42;7.47;;;8.10;37.10;;;;;;4990344;28;20108;-65
2022/02/28 10:15:28;;;;;;;13.52;7.43;;;8.20;36.90;;;;;;4990720;28;20054;-66
2022/02/28 10:17:58;;;;;;;19.80;9.23;;;8.50;36.20;;;;;;4990898;28;20474;-66
2022/02/28 10:20:33;;;;;;;13.07;8.38;;;8.40;35.50;;;;;;4972505;28;20026;-64
2022/02/28 10:23:04;;;;;;;20.90;8.68;;;8.50;35.50;;;;;;4987055;28;20085;-67
2022/02/28 10:25:42;;;;;;;24.67;8.75;;;8.70;35.40;;;;;;4991043;28;20022;-65
2022/02/28 10:28:24;;;;;;;23.25;9.82;;;8.50;35.00;;;;;;4987675;28;20018;-64
2022/02/28 10:31:03;;;;;;;21.10;9.95;;;8.20;35.40;;;;;;4990794;28;20037;-67
2022/02/28 10:33:36;;;;;;;21.25;9.93;;;8.00;35.80;;;;;;4989853;28;20098;-68
2022/02/28 10:36:13;;;;;;;23.42;10.63;;;7.90;36.10;;;;;;4993037;28;20030;-70
2022/02/28 10:38:46;;;;;;;21.65;10.25;;;7.90;36.60;;;;;;4989781;28;20228;-68
2022/02/28 10:41:38;;;;;;;48.88;11.32;;;8.00;36.00;;;;;;4990956;28;20030;-66
2022/02/28 10:44:08;;;;;;;20.15;9.85;;;8.00;36.30;;;;;;4990366;28;20023;-65
2022/02/28 10:46:39;;;;;;;28.63;11.77;;;8.00;36.30;;;;;;4990130;28;20153;-66
2022/02/28 10:49:22;;;;;;;30.05;11.63;;;8.00;36.00;;;;;;4993224;28;20034;-65
2022/02/28 10:51:53;;;;;;;22.43;10.20;;;7.90;36.90;;;;;;4974701;28;20485;-64
2022/02/28 10:54:31;;;;;;;27.35;10.98;;;8.00;36.20;;;;;;4990399;28;20104;-65
2022/02/28 10:57:05;;;;;;;30.33;10.65;;;7.90;36.00;;;;;;4989962;28;20031;-65
2022/02/28 10:59:44;;;;;;;17.23;10.18;;;7.80;36.20;;;;;;4988126;28;20027;-65
2022/02/28 11:02:24;;;;;;;22.95;11.43;;;7.80;36.10;;;;;;4990842;28;20031;-66
2022/02/28 11:05:11;;;;;;;26.65;10.20;;;7.90;35.90;;;;;;4975818;28;20033;-65
2022/02/28 11:07:44;;;;;;;28.25;11.88;;;7.90;35.90;;;;;;4993087;28;20033;-68
2022/02/28 11:10:12;;;;;;;19.95;12.23;;;8.00;35.90;;;;;;4972742;28;20108;-70
2022/02/28 11:12:38;;;;;;;22.48;10.95;;;8.00;35.60;;;;;;4990005;28;20042;-68
2022/02/28 11:15:25;;;;;;;17.92;11.35;;;8.10;35.50;;;;;;4990019;28;20034;-65
2022/02/28 11:17:52;;;;;;;27.50;12.77;;;7.90;35.90;;;;;;4992877;28;20149;-67
2022/02/28 11:20:20;;;;;;;32.85;12.57;;;7.90;35.90;;;;;;4991961;28;20035;-70
2022/02/28 11:22:49;;;;;;;23.02;11.30;;;7.90;36.00;;;;;;4991864;28;20034;-65
2022/02/28 11:25:17;;;;;;;26.83;11.40;;;8.10;35.90;;;;;;4992808;28;20018;-66
2022/02/28 11:27:45;;;;;;;23.02;11.63;;;8.20;35.20;;;;;;4975921;28;20022;-66
2022/02/28 11:30:16;;;;;;;18.88;11.07;;;8.10;35.10;;;;;;4993838;28;20019;-65
2022/02/28 11:32:42;;;;;;;20.80;11.07;;;7.90;35.50;;;;;;4974959;28;20042;-68
2022/02/28 11:35:48;;;;;;;26.83;11.82;;;7.60;36.00;;;;;;4993288;28;20022;-67
2022/02/28 11:38:17;;;;;;;21.08;11.65;;;7.60;36.40;;;;;;4976109;28;20018;-67
2022/02/28 11:41:04;;;;;;;21.75;12.20;;;7.90;36.30;;;;;;4993433;28;20030;-67
2022/02/28 11:43:40;;;;;;;18.20;11.48;;;8.10;36.00;;;;;;4993296;28;20177;-70
2022/02/28 11:46:05;;;;;;;27.08;12.65;;;8.50;35.50;;;;;;4993565;28;20022;-69
2022/02/28 11:48:35;;;;;;;20.48;12.10;;;8.70;34.50;;;;;;4975740;28;20358;-69
2022/02/28 11:51:05;;;;;;;27.05;13.57;;;8.70;35.10;;;;;;4992946;28;20029;-68
2022/02/28 11:53:34;;;;;;;54.35;21.02;;;8.70;34.40;;;;;;4992252;28;20092;-67
2022/02/28 11:56:16;;;;;;;27.13;10.50;;;8.50;34.80;;;;;;4993259;28;20022;-67
2022/02/28 11:58:54;;;;;;;21.90;10.52;;;8.60;34.70;;;;;;4992575;28;20026;-66
2022/02/28 12:01:28;;;;;;;17.95;10.10;;;8.60;34.50;;;;;;4993069;28;20030;-66
2022/02/28 12:04:20;;;;;;;18.27;10.32;;;8.80;34.50;;;;;;4992625;28;20030;-68
2022/02/28 12:06:59;;;;;;;22.95;11.18;;;9.00;34.10;;;;;;4991629;28;20053;-66
2022/02/28 12:09:36;;;;;;;15.63;9.20;;;9.10;33.40;;;;;;4975116;28;20033;-66
2022/02/28 12:12:31;;;;;;;26.17;10.02;;;8.90;33.30;;;;;;4992967;28;20034;-67
2022/02/28 12:15:01;;;;;;;18.27;9.65;;;8.70;33.70;;;;;;4974231;28;20029;-65
2022/02/28 12:17:34;;;;;;;22.33;11.73;;;8.50;34.10;;;;;;4973084;28;20026;-66
2022/02/28 12:20:16;;;;;;;19.90;9.73;;;8.40;34.30;;;;;;4991433;28;20022;-67
2022/02/28 12:23:08;;;;;;;20.77;12.30;;;8.60;34.50;;;;;;4991920;28;20026;-67
2022/02/28 12:25:41;;;;;;;14.77;9.00;;;8.60;33.80;;;;;;4991786;28;20030;-66
2022/02/28 12:28:17;;;;;;;17.65;8.82;;;8.60;34.00;;;;;;4988698;28;20041;-66
2022/02/28 12:30:48;;;;;;;17.58;8.68;;;8.80;33.70;;;;;;4991394;28;20094;-66
2022/02/28 12:33:19;;;;;;;17.35;8.23;;;8.70;32.70;;;;;;4991633;28;20054;-66
2022/02/28 12:36:00;;;;;;;14.98;7.80;;;8.60;32.60;;;;;;4991081;28;20027;-66
2022/02/28 12:38:30;;;;;;;17.50;8.18;;;8.50;32.80;;;;;;4973494;28;20037;-65
2022/02/28 12:41:02;;;;;;;20.75;8.55;;;8.60;32.90;;;;;;4989765;28;20034;-66
2022/02/28 12:43:29;;;;;;;22.45;9.52;;;8.40;32.70;;;;;;4973529;28;20026;-65